sensor_id;sensor_type;location;lat;lon;timestamp;P1;durP1;ratioP1;P2;durP2;ratioP2
13238;SDS011;6686;51.292;4.166;2023-07-02T00:01:11;26.03;;;15.93;;
13238;SDS011;6686;51.292;4.166;2023-07-02T00:03:57;24.47;;;15.10;;
13238;SDS011;6686;51.292;4.166;2023-07-02T00:06:43;29.83;;;15.33;;
13238;SDS011;6686;51.292;4.166;2023-07-02T00:09:29;31.70;;;18.42;;
13238;SDS011;6686;51.292;4.166;2023-07-02T00:12:15;30.90;;;17.93;;
13238;SDS011;6686;51.292;4.166;2023-07-02T00:15:01;31.93;;;16.67;;
13238;SDS011;6686;51.292;4.166;2023-07-02T00:17:47;27.53;;;16.63;;
13238;SDS011;6686;51.292;4.166;2023-07-02T00:20:33;31.97;;;15.53;;
13238;SDS011;6686;51.292;4.166;2023-07-02T00:23:22;32.63;;;16.87;;
13238;SDS011;6686;51.292;4.166;2023-07-02T00:26:08;28.03;;;16.40;;
13238;SDS011;6686;51.292;4.166;2023-07-02T00:28:55;33.33;;;17.70;;
13238;SDS011;6686;51.292;4.166;2023-07-02T00:31:40;30.17;;;16.30;;
13238;SDS011;6686;51.292;4.166;2023-07-02T00:34:26;38.43;;;17.13;;
13238;SDS011;6686;51.292;4.166;2023-07-02T00:37:13;30.67;;;16.90;;
13238;SDS011;6686;51.292;4.166;2023-07-02T00:39:59;28.17;;;17.23;;
13238;SDS011;6686;51.292;4.166;2023-07-02T00:42:45;30.93;;;15.60;;
13238;SDS011;6686;51.292;4.166;2023-07-02T00:45:30;34.27;;;17.50;;
13238;SDS011;6686;51.292;4.166;2023-07-02T00:48:17;36.37;;;17.67;;
13238;SDS011;6686;51.292;4.166;2023-07-02T00:51:03;30.07;;;16.37;;
13238;SDS011;6686;51.292;4.166;2023-07-02T00:53:49;34.33;;;17.47;;
13238;SDS011;6686;51.292;4.166;2023-07-02T00:56:34;30.57;;;17.53;;
13238;SDS011;6686;51.292;4.166;2023-07-02T00:59:20;30.52;;;19.40;;
13238;SDS011;6686;51.292;4.166;2023-07-02T01:02:06;30.23;;;17.63;;
13238;SDS011;6686;51.292;4.166;2023-07-02T01:04:52;32.77;;;17.77;;
13238;SDS011;6686;51.292;4.166;2023-07-02T01:07:37;31.67;;;19.27;;
13238;SDS011;6686;51.292;4.166;2023-07-02T01:10:23;30.92;;;18.67;;
13238;SDS011;6686;51.292;4.166;2023-07-02T01:13:10;30.07;;;18.57;;
13238;SDS011;6686;51.292;4.166;2023-07-02T01:15:55;31.90;;;17.03;;
13238;SDS011;6686;51.292;4.166;2023-07-02T01:18:41;30.93;;;16.47;;
13238;SDS011;6686;51.292;4.166;2023-07-02T01:21:27;27.93;;;16.83;;
13238;SDS011;6686;51.292;4.166;2023-07-02T01:24:13;28.30;;;17.20;;
13238;SDS011;6686;51.292;4.166;2023-07-02T01:26:58;29.63;;;17.00;;
13238;SDS011;6686;51.292;4.166;2023-07-02T01:29:44;30.03;;;17.17;;
13238;SDS011;6686;51.292;4.166;2023-07-02T01:32:30;24.80;;;16.40;;
13238;SDS011;6686;51.292;4.166;2023-07-02T01:35:16;29.53;;;16.13;;
13238;SDS011;6686;51.292;4.166;2023-07-02T01:38:02;25.47;;;16.43;;
13238;SDS011;6686;51.292;4.166;2023-07-02T01:40:48;28.83;;;16.87;;
13238;SDS011;6686;51.292;4.166;2023-07-02T01:43:34;27.47;;;16.60;;
13238;SDS011;6686;51.292;4.166;2023-07-02T01:46:20;29.83;;;16.53;;
13238;SDS011;6686;51.292;4.166;2023-07-02T01:49:05;30.07;;;17.13;;
13238;SDS011;6686;51.292;4.166;2023-07-02T01:51:51;25.67;;;16.63;;
13238;SDS011;6686;51.292;4.166;2023-07-02T01:54:37;29.67;;;19.42;;
13238;SDS011;6686;51.292;4.166;2023-07-02T01:57:23;33.35;;;19.92;;
13238;SDS011;6686;51.292;4.166;2023-07-02T02:00:09;31.97;;;17.57;;
13238;SDS011;6686;51.292;4.166;2023-07-02T02:02:55;29.07;;;15.83;;
13238;SDS011;6686;51.292;4.166;2023-07-02T02:05:41;34.10;;;16.83;;
13238;SDS011;6686;51.292;4.166;2023-07-02T02:08:27;34.20;;;17.50;;
13238;SDS011;6686;51.292;4.166;2023-07-02T02:11:13;28.23;;;16.53;;
13238;SDS011;6686;51.292;4.166;2023-07-02T02:13:59;32.73;;;16.70;;
13238;SDS011;6686;51.292;4.166;2023-07-02T02:16:44;27.63;;;16.53;;
13238;SDS011;6686;51.292;4.166;2023-07-02T02:19:30;28.93;;;16.20;;
13238;SDS011;6686;51.292;4.166;2023-07-02T02:22:16;29.87;;;16.53;;
13238;SDS011;6686;51.292;4.166;2023-07-02T02:25:02;30.42;;;18.62;;
13238;SDS011;6686;51.292;4.166;2023-07-02T02:27:48;32.97;;;17.67;;
13238;SDS011;6686;51.292;4.166;2023-07-02T02:30:34;31.33;;;16.70;;
13238;SDS011;6686;51.292;4.166;2023-07-02T02:33:21;30.27;;;19.05;;
13238;SDS011;6686;51.292;4.166;2023-07-02T02:36:06;28.73;;;18.75;;
13238;SDS011;6686;51.292;4.166;2023-07-02T02:38:52;28.73;;;17.60;;
13238;SDS011;6686;51.292;4.166;2023-07-02T02:41:38;27.87;;;17.10;;
13238;SDS011;6686;51.292;4.166;2023-07-02T02:44:24;30.30;;;17.03;;
13238;SDS011;6686;51.292;4.166;2023-07-02T02:47:10;24.40;;;15.63;;
13238;SDS011;6686;51.292;4.166;2023-07-02T02:49:56;33.10;;;16.23;;
13238;SDS011;6686;51.292;4.166;2023-07-02T02:52:42;29.87;;;16.60;;
13238;SDS011;6686;51.292;4.166;2023-07-02T02:55:28;28.57;;;16.87;;
13238;SDS011;6686;51.292;4.166;2023-07-02T02:58:14;31.13;;;17.07;;
13238;SDS011;6686;51.292;4.166;2023-07-02T03:00:59;26.60;;;18.48;;
13238;SDS011;6686;51.292;4.166;2023-07-02T03:03:45;30.97;;;17.83;;
13238;SDS011;6686;51.292;4.166;2023-07-02T03:06:31;29.83;;;17.47;;
13238;SDS011;6686;51.292;4.166;2023-07-02T03:09:17;32.40;;;18.37;;
13238;SDS011;6686;51.292;4.166;2023-07-02T03:12:03;29.43;;;16.90;;
13238;SDS011;6686;51.292;4.166;2023-07-02T03:14:49;31.43;;;18.03;;
13238;SDS011;6686;51.292;4.166;2023-07-02T03:17:35;30.97;;;17.17;;
13238;SDS011;6686;51.292;4.166;2023-07-02T03:20:21;34.70;;;18.27;;
13238;SDS011;6686;51.292;4.166;2023-07-02T03:23:07;29.10;;;17.60;;
13238;SDS011;6686;51.292;4.166;2023-07-02T03:25:52;31.40;;;18.60;;
13238;SDS011;6686;51.292;4.166;2023-07-02T03:28:38;31.63;;;17.90;;
13238;SDS011;6686;51.292;4.166;2023-07-02T03:31:24;29.67;;;17.27;;
13238;SDS011;6686;51.292;4.166;2023-07-02T03:34:10;32.57;;;17.60;;
13238;SDS011;6686;51.292;4.166;2023-07-02T03:36:56;30.30;;;18.27;;
13238;SDS011;6686;51.292;4.166;2023-07-02T03:39:42;30.73;;;17.83;;
13238;SDS011;6686;51.292;4.166;2023-07-02T03:42:28;35.90;;;18.43;;
13238;SDS011;6686;51.292;4.166;2023-07-02T03:45:14;32.27;;;17.60;;
13238;SDS011;6686;51.292;4.166;2023-07-02T03:48:00;34.00;;;17.23;;
13238;SDS011;6686;51.292;4.166;2023-07-02T03:50:46;30.63;;;16.67;;
13238;SDS011;6686;51.292;4.166;2023-07-02T03:53:32;30.37;;;17.13;;
13238;SDS011;6686;51.292;4.166;2023-07-02T03:56:18;29.87;;;16.17;;
13238;SDS011;6686;51.292;4.166;2023-07-02T03:59:04;29.63;;;16.60;;
13238;SDS011;6686;51.292;4.166;2023-07-02T04:01:50;20.60;;;14.20;;
13238;SDS011;6686;51.292;4.166;2023-07-02T04:04:35;26.12;;;16.35;;
13238;SDS011;6686;51.292;4.166;2023-07-02T04:07:21;27.83;;;15.27;;
13238;SDS011;6686;51.292;4.166;2023-07-02T04:10:07;21.97;;;14.20;;
13238;SDS011;6686;51.292;4.166;2023-07-02T04:12:54;27.90;;;14.07;;
13238;SDS011;6686;51.292;4.166;2023-07-02T04:15:40;29.77;;;15.13;;
13238;SDS011;6686;51.292;4.166;2023-07-02T04:18:25;26.97;;;15.77;;
13238;SDS011;6686;51.292;4.166;2023-07-02T04:21:11;25.12;;;16.20;;
13238;SDS011;6686;51.292;4.166;2023-07-02T04:23:57;25.33;;;15.03;;
13238;SDS011;6686;51.292;4.166;2023-07-02T04:26:43;28.70;;;15.40;;
13238;SDS011;6686;51.292;4.166;2023-07-02T04:29:29;27.67;;;15.93;;
13238;SDS011;6686;51.292;4.166;2023-07-02T04:32:15;29.93;;;16.57;;
13238;SDS011;6686;51.292;4.166;2023-07-02T04:35:01;27.57;;;15.93;;
13238;SDS011;6686;51.292;4.166;2023-07-02T04:37:47;26.40;;;15.77;;
13238;SDS011;6686;51.292;4.166;2023-07-02T04:40:32;28.50;;;17.50;;
13238;SDS011;6686;51.292;4.166;2023-07-02T04:43:18;29.20;;;18.60;;
13238;SDS011;6686;51.292;4.166;2023-07-02T04:46:05;30.90;;;19.25;;
13238;SDS011;6686;51.292;4.166;2023-07-02T04:48:51;25.40;;;16.33;;
13238;SDS011;6686;51.292;4.166;2023-07-02T04:51:37;29.03;;;17.03;;
13238;SDS011;6686;51.292;4.166;2023-07-02T04:54:23;26.17;;;17.27;;
13238;SDS011;6686;51.292;4.166;2023-07-02T04:57:09;27.63;;;16.17;;
13238;SDS011;6686;51.292;4.166;2023-07-02T04:59:55;27.33;;;18.23;;
13238;SDS011;6686;51.292;4.166;2023-07-02T05:02:41;24.67;;;15.67;;
13238;SDS011;6686;51.292;4.166;2023-07-02T05:05:27;26.83;;;15.00;;
13238;SDS011;6686;51.292;4.166;2023-07-02T05:08:14;28.97;;;16.23;;
13238;SDS011;6686;51.292;4.166;2023-07-02T05:10:59;22.00;;;14.30;;
13238;SDS011;6686;51.292;4.166;2023-07-02T05:13:45;29.23;;;15.93;;
13238;SDS011;6686;51.292;4.166;2023-07-02T05:16:31;25.27;;;15.60;;
13238;SDS011;6686;51.292;4.166;2023-07-02T05:19:18;24.73;;;14.37;;
13238;SDS011;6686;51.292;4.166;2023-07-02T05:22:03;24.37;;;14.80;;
13238;SDS011;6686;51.292;4.166;2023-07-02T05:24:49;25.77;;;14.47;;
13238;SDS011;6686;51.292;4.166;2023-07-02T05:27:35;25.03;;;13.30;;
13238;SDS011;6686;51.292;4.166;2023-07-02T05:30:21;21.30;;;13.83;;
13238;SDS011;6686;51.292;4.166;2023-07-02T05:33:07;23.90;;;14.50;;
13238;SDS011;6686;51.292;4.166;2023-07-02T05:35:53;23.47;;;12.70;;
13238;SDS011;6686;51.292;4.166;2023-07-02T05:38:39;23.63;;;13.50;;
13238;SDS011;6686;51.292;4.166;2023-07-02T05:41:25;23.40;;;13.77;;
13238;SDS011;6686;51.292;4.166;2023-07-02T05:44:11;23.83;;;12.07;;
13238;SDS011;6686;51.292;4.166;2023-07-02T05:46:57;18.53;;;10.87;;
13238;SDS011;6686;51.292;4.166;2023-07-02T05:49:42;21.70;;;12.27;;
13238;SDS011;6686;51.292;4.166;2023-07-02T05:52:28;16.27;;;9.97;;
13238;SDS011;6686;51.292;4.166;2023-07-02T05:55:14;20.70;;;11.00;;
13238;SDS011;6686;51.292;4.166;2023-07-02T05:57:59;23.27;;;10.80;;
13238;SDS011;6686;51.292;4.166;2023-07-02T06:00:46;20.30;;;11.43;;
13238;SDS011;6686;51.292;4.166;2023-07-02T06:03:32;20.57;;;10.50;;
13238;SDS011;6686;51.292;4.166;2023-07-02T06:06:18;17.37;;;10.37;;
13238;SDS011;6686;51.292;4.166;2023-07-02T06:09:04;16.20;;;10.43;;
13238;SDS011;6686;51.292;4.166;2023-07-02T06:11:49;20.63;;;10.90;;
13238;SDS011;6686;51.292;4.166;2023-07-02T06:14:35;19.40;;;9.80;;
13238;SDS011;6686;51.292;4.166;2023-07-02T06:17:21;18.37;;;11.10;;
13238;SDS011;6686;51.292;4.166;2023-07-02T06:20:07;15.47;;;9.97;;
13238;SDS011;6686;51.292;4.166;2023-07-02T06:22:53;22.97;;;10.17;;
13238;SDS011;6686;51.292;4.166;2023-07-02T06:25:39;19.13;;;10.73;;
13238;SDS011;6686;51.292;4.166;2023-07-02T06:28:25;17.47;;;9.07;;
13238;SDS011;6686;51.292;4.166;2023-07-02T06:31:11;15.18;;;9.73;;
13238;SDS011;6686;51.292;4.166;2023-07-02T06:33:57;17.93;;;8.97;;
13238;SDS011;6686;51.292;4.166;2023-07-02T06:36:43;15.85;;;9.15;;
13238;SDS011;6686;51.292;4.166;2023-07-02T06:39:28;13.87;;;8.60;;
13238;SDS011;6686;51.292;4.166;2023-07-02T06:42:14;13.70;;;7.47;;
13238;SDS011;6686;51.292;4.166;2023-07-02T06:45:00;19.03;;;8.00;;
13238;SDS011;6686;51.292;4.166;2023-07-02T06:47:46;11.47;;;6.50;;
13238;SDS011;6686;51.292;4.166;2023-07-02T06:50:32;11.00;;;5.80;;
13238;SDS011;6686;51.292;4.166;2023-07-02T06:53:18;11.23;;;5.43;;
13238;SDS011;6686;51.292;4.166;2023-07-02T06:56:04;9.67;;;4.93;;
13238;SDS011;6686;51.292;4.166;2023-07-02T06:58:50;12.77;;;5.70;;
13238;SDS011;6686;51.292;4.166;2023-07-02T07:01:35;8.73;;;4.60;;
13238;SDS011;6686;51.292;4.166;2023-07-02T07:04:21;8.63;;;4.77;;
13238;SDS011;6686;51.292;4.166;2023-07-02T07:07:07;9.00;;;5.65;;
13238;SDS011;6686;51.292;4.166;2023-07-02T07:09:53;11.12;;;5.62;;
13238;SDS011;6686;51.292;4.166;2023-07-02T07:12:38;9.57;;;5.03;;
13238;SDS011;6686;51.292;4.166;2023-07-02T07:15:25;9.07;;;4.97;;
13238;SDS011;6686;51.292;4.166;2023-07-02T07:18:10;12.50;;;5.20;;
13238;SDS011;6686;51.292;4.166;2023-07-02T07:20:56;9.00;;;5.27;;
13238;SDS011;6686;51.292;4.166;2023-07-02T07:23:42;9.60;;;5.10;;
13238;SDS011;6686;51.292;4.166;2023-07-02T07:26:28;9.77;;;5.37;;
13238;SDS011;6686;51.292;4.166;2023-07-02T07:29:14;7.73;;;4.80;;
13238;SDS011;6686;51.292;4.166;2023-07-02T07:32:00;9.63;;;4.90;;
13238;SDS011;6686;51.292;4.166;2023-07-02T07:34:46;10.87;;;5.57;;
13238;SDS011;6686;51.292;4.166;2023-07-02T07:37:31;9.90;;;5.40;;
13238;SDS011;6686;51.292;4.166;2023-07-02T07:40:17;9.93;;;5.40;;
13238;SDS011;6686;51.292;4.166;2023-07-02T07:43:03;10.07;;;5.17;;
13238;SDS011;6686;51.292;4.166;2023-07-02T07:45:49;9.83;;;5.20;;
13238;SDS011;6686;51.292;4.166;2023-07-02T07:48:35;10.17;;;5.40;;
13238;SDS011;6686;51.292;4.166;2023-07-02T07:51:22;11.13;;;5.87;;
13238;SDS011;6686;51.292;4.166;2023-07-02T07:54:08;10.80;;;5.43;;
13238;SDS011;6686;51.292;4.166;2023-07-02T07:56:54;11.60;;;5.80;;
13238;SDS011;6686;51.292;4.166;2023-07-02T07:59:40;8.87;;;5.57;;
13238;SDS011;6686;51.292;4.166;2023-07-02T08:02:26;10.60;;;6.17;;
13238;SDS011;6686;51.292;4.166;2023-07-02T08:05:12;10.68;;;5.80;;
13238;SDS011;6686;51.292;4.166;2023-07-02T08:07:58;12.30;;;6.43;;
13238;SDS011;6686;51.292;4.166;2023-07-02T08:10:45;14.23;;;6.90;;
13238;SDS011;6686;51.292;4.166;2023-07-02T08:13:30;10.63;;;6.10;;
13238;SDS011;6686;51.292;4.166;2023-07-02T08:16:16;11.27;;;5.70;;
13238;SDS011;6686;51.292;4.166;2023-07-02T08:19:02;10.87;;;5.93;;
13238;SDS011;6686;51.292;4.166;2023-07-02T08:21:48;12.77;;;6.00;;
13238;SDS011;6686;51.292;4.166;2023-07-02T08:24:34;12.03;;;6.43;;
13238;SDS011;6686;51.292;4.166;2023-07-02T08:27:20;13.40;;;5.97;;
13238;SDS011;6686;51.292;4.166;2023-07-02T08:30:06;11.67;;;5.93;;
13238;SDS011;6686;51.292;4.166;2023-07-02T08:32:52;10.43;;;5.93;;
13238;SDS011;6686;51.292;4.166;2023-07-02T08:35:37;11.97;;;5.73;;
13238;SDS011;6686;51.292;4.166;2023-07-02T08:38:23;15.13;;;6.97;;
13238;SDS011;6686;51.292;4.166;2023-07-02T08:41:09;14.13;;;7.47;;
13238;SDS011;6686;51.292;4.166;2023-07-02T08:43:55;14.83;;;7.53;;
13238;SDS011;6686;51.292;4.166;2023-07-02T08:46:41;17.17;;;7.43;;
13238;SDS011;6686;51.292;4.166;2023-07-02T08:49:27;17.20;;;7.20;;
13238;SDS011;6686;51.292;4.166;2023-07-02T08:52:13;13.70;;;7.43;;
13238;SDS011;6686;51.292;4.166;2023-07-02T08:54:59;12.57;;;6.53;;
13238;SDS011;6686;51.292;4.166;2023-07-02T08:57:52;12.90;;;6.57;;
13238;SDS011;6686;51.292;4.166;2023-07-02T09:00:36;12.27;;;6.50;;
13238;SDS011;6686;51.292;4.166;2023-07-02T09:03:22;12.50;;;6.97;;
13238;SDS011;6686;51.292;4.166;2023-07-02T09:06:09;14.43;;;7.13;;
13238;SDS011;6686;51.292;4.166;2023-07-02T09:09:02;12.90;;;7.25;;
13238;SDS011;6686;51.292;4.166;2023-07-02T09:11:46;14.90;;;7.67;;
13238;SDS011;6686;51.292;4.166;2023-07-02T09:14:32;15.00;;;7.20;;
13238;SDS011;6686;51.292;4.166;2023-07-02T09:17:18;11.60;;;6.77;;
13238;SDS011;6686;51.292;4.166;2023-07-02T09:20:04;17.40;;;7.77;;
13238;SDS011;6686;51.292;4.166;2023-07-02T09:22:55;15.27;;;7.60;;
13238;SDS011;6686;51.292;4.166;2023-07-02T09:25:42;12.40;;;7.50;;
13238;SDS011;6686;51.292;4.166;2023-07-02T09:28:28;16.83;;;8.20;;
13238;SDS011;6686;51.292;4.166;2023-07-02T09:31:14;16.57;;;8.67;;
13238;SDS011;6686;51.292;4.166;2023-07-02T09:34:02;15.63;;;9.43;;
13238;SDS011;6686;51.292;4.166;2023-07-02T09:36:48;17.13;;;8.97;;
13238;SDS011;6686;51.292;4.166;2023-07-02T09:39:35;17.43;;;9.37;;
13238;SDS011;6686;51.292;4.166;2023-07-02T09:42:20;20.27;;;8.50;;
13238;SDS011;6686;51.292;4.166;2023-07-02T09:45:09;16.70;;;8.43;;
13238;SDS011;6686;51.292;4.166;2023-07-02T09:47:55;15.33;;;7.43;;
13238;SDS011;6686;51.292;4.166;2023-07-02T09:50:45;14.05;;;8.63;;
13238;SDS011;6686;51.292;4.166;2023-07-02T09:53:27;15.53;;;7.80;;
13238;SDS011;6686;51.292;4.166;2023-07-02T09:56:13;15.07;;;6.80;;
13238;SDS011;6686;51.292;4.166;2023-07-02T09:58:58;16.37;;;7.50;;
13238;SDS011;6686;51.292;4.166;2023-07-02T10:01:44;13.90;;;7.37;;
13238;SDS011;6686;51.292;4.166;2023-07-02T10:04:40;17.00;;;8.27;;
13238;SDS011;6686;51.292;4.166;2023-07-02T10:07:28;15.00;;;7.00;;
13238;SDS011;6686;51.292;4.166;2023-07-02T10:10:24;15.13;;;7.87;;
13238;SDS011;6686;51.292;4.166;2023-07-02T10:13:00;11.30;;;6.20;;
13238;SDS011;6686;51.292;4.166;2023-07-02T10:15:46;12.90;;;6.33;;
13238;SDS011;6686;51.292;4.166;2023-07-02T10:18:32;13.97;;;6.70;;
13238;SDS011;6686;51.292;4.166;2023-07-02T10:21:18;10.37;;;5.73;;
13238;SDS011;6686;51.292;4.166;2023-07-02T10:24:11;10.43;;;6.13;;
13238;SDS011;6686;51.292;4.166;2023-07-02T10:26:58;10.37;;;6.20;;
13238;SDS011;6686;51.292;4.166;2023-07-02T10:29:52;10.50;;;5.93;;
13238;SDS011;6686;51.292;4.166;2023-07-02T10:32:35;9.53;;;5.73;;
13238;SDS011;6686;51.292;4.166;2023-07-02T10:35:21;11.80;;;5.97;;
13238;SDS011;6686;51.292;4.166;2023-07-02T10:38:07;9.53;;;5.30;;
13238;SDS011;6686;51.292;4.166;2023-07-02T10:40:56;11.37;;;6.03;;
13238;SDS011;6686;51.292;4.166;2023-07-02T10:43:42;8.70;;;5.33;;
13238;SDS011;6686;51.292;4.166;2023-07-02T10:46:28;9.50;;;5.43;;
13238;SDS011;6686;51.292;4.166;2023-07-02T10:49:14;11.50;;;6.12;;
13238;SDS011;6686;51.292;4.166;2023-07-02T10:52:00;13.27;;;5.97;;
13238;SDS011;6686;51.292;4.166;2023-07-02T10:54:46;10.03;;;5.70;;
13238;SDS011;6686;51.292;4.166;2023-07-02T10:57:32;10.30;;;5.50;;
13238;SDS011;6686;51.292;4.166;2023-07-02T11:00:18;9.57;;;5.73;;
13238;SDS011;6686;51.292;4.166;2023-07-02T11:03:04;8.87;;;4.93;;
13238;SDS011;6686;51.292;4.166;2023-07-02T11:05:50;8.37;;;5.27;;
13238;SDS011;6686;51.292;4.166;2023-07-02T11:08:36;11.00;;;5.30;;
13238;SDS011;6686;51.292;4.166;2023-07-02T11:11:22;10.13;;;5.50;;
13238;SDS011;6686;51.292;4.166;2023-07-02T11:14:07;8.80;;;4.70;;
13238;SDS011;6686;51.292;4.166;2023-07-02T11:16:56;10.13;;;5.03;;
13238;SDS011;6686;51.292;4.166;2023-07-02T11:19:42;9.07;;;5.50;;
13238;SDS011;6686;51.292;4.166;2023-07-02T11:22:34;10.00;;;5.32;;
13238;SDS011;6686;51.292;4.166;2023-07-02T11:25:20;9.97;;;5.30;;
13238;SDS011;6686;51.292;4.166;2023-07-02T11:28:06;8.00;;;4.90;;
13238;SDS011;6686;51.292;4.166;2023-07-02T11:30:52;9.93;;;5.00;;
13238;SDS011;6686;51.292;4.166;2023-07-02T11:33:39;9.13;;;5.50;;
13238;SDS011;6686;51.292;4.166;2023-07-02T11:36:24;6.40;;;4.50;;
13238;SDS011;6686;51.292;4.166;2023-07-02T11:39:10;9.93;;;5.07;;
13238;SDS011;6686;51.292;4.166;2023-07-02T11:41:56;12.30;;;4.97;;
13238;SDS011;6686;51.292;4.166;2023-07-02T11:44:42;10.90;;;4.77;;
13238;SDS011;6686;51.292;4.166;2023-07-02T11:47:28;8.63;;;4.53;;
13238;SDS011;6686;51.292;4.166;2023-07-02T11:50:13;8.57;;;4.53;;
13238;SDS011;6686;51.292;4.166;2023-07-02T11:52:59;7.73;;;3.87;;
13238;SDS011;6686;51.292;4.166;2023-07-02T11:55:45;8.27;;;4.53;;
13238;SDS011;6686;51.292;4.166;2023-07-02T11:58:31;9.80;;;4.40;;
13238;SDS011;6686;51.292;4.166;2023-07-02T12:01:17;8.80;;;4.47;;
13238;SDS011;6686;51.292;4.166;2023-07-02T12:04:03;9.80;;;4.43;;
13238;SDS011;6686;51.292;4.166;2023-07-02T12:06:48;7.47;;;4.20;;
13238;SDS011;6686;51.292;4.166;2023-07-02T12:09:35;7.97;;;4.40;;
13238;SDS011;6686;51.292;4.166;2023-07-02T12:12:20;6.73;;;4.27;;
13238;SDS011;6686;51.292;4.166;2023-07-02T12:15:06;9.77;;;4.83;;
13238;SDS011;6686;51.292;4.166;2023-07-02T12:17:52;10.30;;;4.20;;
13238;SDS011;6686;51.292;4.166;2023-07-02T12:20:39;10.33;;;4.53;;
13238;SDS011;6686;51.292;4.166;2023-07-02T12:23:24;8.00;;;4.27;;
13238;SDS011;6686;51.292;4.166;2023-07-02T12:26:10;7.53;;;4.23;;
13238;SDS011;6686;51.292;4.166;2023-07-02T12:28:56;7.73;;;4.53;;
13238;SDS011;6686;51.292;4.166;2023-07-02T12:31:42;9.30;;;4.53;;
13238;SDS011;6686;51.292;4.166;2023-07-02T12:34:28;7.13;;;4.30;;
13238;SDS011;6686;51.292;4.166;2023-07-02T12:37:14;13.23;;;4.63;;
13238;SDS011;6686;51.292;4.166;2023-07-02T12:40:00;12.00;;;4.83;;
13238;SDS011;6686;51.292;4.166;2023-07-02T12:42:46;8.57;;;4.87;;
13238;SDS011;6686;51.292;4.166;2023-07-02T12:45:35;7.87;;;4.83;;
13238;SDS011;6686;51.292;4.166;2023-07-02T12:48:20;7.70;;;4.62;;
13238;SDS011;6686;51.292;4.166;2023-07-02T12:51:06;8.18;;;5.25;;
13238;SDS011;6686;51.292;4.166;2023-07-02T12:53:52;8.40;;;4.87;;
13238;SDS011;6686;51.292;4.166;2023-07-02T12:56:38;9.13;;;5.00;;
13238;SDS011;6686;51.292;4.166;2023-07-02T12:59:24;9.40;;;4.57;;
13238;SDS011;6686;51.292;4.166;2023-07-02T13:02:10;7.17;;;4.60;;
13238;SDS011;6686;51.292;4.166;2023-07-02T13:04:56;10.37;;;5.27;;
13238;SDS011;6686;51.292;4.166;2023-07-02T13:07:42;9.47;;;5.00;;
13238;SDS011;6686;51.292;4.166;2023-07-02T13:10:28;9.07;;;4.67;;
13238;SDS011;6686;51.292;4.166;2023-07-02T13:13:14;10.93;;;5.77;;
13238;SDS011;6686;51.292;4.166;2023-07-02T13:15:59;10.10;;;5.30;;
13238;SDS011;6686;51.292;4.166;2023-07-02T13:18:47;8.93;;;5.23;;
13238;SDS011;6686;51.292;4.166;2023-07-02T13:21:33;9.70;;;4.77;;
13238;SDS011;6686;51.292;4.166;2023-07-02T13:24:19;11.53;;;4.73;;
13238;SDS011;6686;51.292;4.166;2023-07-02T13:27:05;9.40;;;4.87;;
13238;SDS011;6686;51.292;4.166;2023-07-02T13:29:51;9.77;;;4.90;;
13238;SDS011;6686;51.292;4.166;2023-07-02T13:32:37;10.37;;;5.20;;
13238;SDS011;6686;51.292;4.166;2023-07-02T13:35:23;6.70;;;4.80;;
13238;SDS011;6686;51.292;4.166;2023-07-02T13:38:08;10.48;;;6.20;;
13238;SDS011;6686;51.292;4.166;2023-07-02T13:40:54;22.50;;;12.00;;
13238;SDS011;6686;51.292;4.166;2023-07-02T13:43:40;18.47;;;10.03;;
13238;SDS011;6686;51.292;4.166;2023-07-02T13:46:26;8.87;;;5.17;;
13238;SDS011;6686;51.292;4.166;2023-07-02T13:49:12;7.90;;;4.80;;
13238;SDS011;6686;51.292;4.166;2023-07-02T13:51:58;9.70;;;5.00;;
13238;SDS011;6686;51.292;4.166;2023-07-02T13:54:44;9.37;;;4.70;;
13238;SDS011;6686;51.292;4.166;2023-07-02T13:57:30;9.07;;;5.72;;
13238;SDS011;6686;51.292;4.166;2023-07-02T14:00:15;7.97;;;4.70;;
13238;SDS011;6686;51.292;4.166;2023-07-02T14:03:01;8.60;;;5.20;;
13238;SDS011;6686;51.292;4.166;2023-07-02T14:05:47;6.80;;;4.77;;
13238;SDS011;6686;51.292;4.166;2023-07-02T14:08:33;8.00;;;5.13;;
13238;SDS011;6686;51.292;4.166;2023-07-02T14:11:19;8.20;;;5.23;;
13238;SDS011;6686;51.292;4.166;2023-07-02T14:14:06;10.20;;;5.97;;
13238;SDS011;6686;51.292;4.166;2023-07-02T14:16:51;9.27;;;5.30;;
13238;SDS011;6686;51.292;4.166;2023-07-02T14:19:38;7.63;;;5.10;;
13238;SDS011;6686;51.292;4.166;2023-07-02T14:22:23;9.93;;;5.40;;
13238;SDS011;6686;51.292;4.166;2023-07-02T14:25:10;12.47;;;5.30;;
13238;SDS011;6686;51.292;4.166;2023-07-02T14:27:55;8.37;;;5.30;;
13238;SDS011;6686;51.292;4.166;2023-07-02T14:30:41;11.40;;;6.00;;
13238;SDS011;6686;51.292;4.166;2023-07-02T14:33:28;11.03;;;5.83;;
13238;SDS011;6686;51.292;4.166;2023-07-02T14:36:13;8.93;;;5.47;;
13238;SDS011;6686;51.292;4.166;2023-07-02T14:38:59;11.33;;;5.63;;
13238;SDS011;6686;51.292;4.166;2023-07-02T14:41:45;11.90;;;5.82;;
13238;SDS011;6686;51.292;4.166;2023-07-02T14:44:31;10.93;;;6.05;;
13238;SDS011;6686;51.292;4.166;2023-07-02T14:47:16;11.83;;;6.17;;
13238;SDS011;6686;51.292;4.166;2023-07-02T14:50:02;12.23;;;5.90;;
13238;SDS011;6686;51.292;4.166;2023-07-02T14:52:48;13.00;;;5.47;;
13238;SDS011;6686;51.292;4.166;2023-07-02T14:55:34;10.80;;;6.15;;
13238;SDS011;6686;51.292;4.166;2023-07-02T14:58:20;12.53;;;5.63;;
13238;SDS011;6686;51.292;4.166;2023-07-02T15:01:06;10.53;;;5.80;;
13238;SDS011;6686;51.292;4.166;2023-07-02T15:03:52;10.13;;;6.13;;
13238;SDS011;6686;51.292;4.166;2023-07-02T15:06:37;11.03;;;5.10;;
13238;SDS011;6686;51.292;4.166;2023-07-02T15:09:23;12.33;;;6.03;;
13238;SDS011;6686;51.292;4.166;2023-07-02T15:12:09;9.60;;;5.97;;
13238;SDS011;6686;51.292;4.166;2023-07-02T15:14:56;12.60;;;5.87;;
13238;SDS011;6686;51.292;4.166;2023-07-02T15:17:41;14.27;;;6.57;;
13238;SDS011;6686;51.292;4.166;2023-07-02T15:20:27;10.67;;;5.70;;
13238;SDS011;6686;51.292;4.166;2023-07-02T15:23:13;10.90;;;5.97;;
13238;SDS011;6686;51.292;4.166;2023-07-02T15:26:01;12.80;;;6.03;;
13238;SDS011;6686;51.292;4.166;2023-07-02T15:28:46;16.20;;;5.67;;
13238;SDS011;6686;51.292;4.166;2023-07-02T15:31:32;10.00;;;5.40;;
13238;SDS011;6686;51.292;4.166;2023-07-02T15:34:18;7.77;;;5.10;;
13238;SDS011;6686;51.292;4.166;2023-07-02T15:37:04;11.50;;;5.80;;
13238;SDS011;6686;51.292;4.166;2023-07-02T15:39:50;13.87;;;6.67;;
13238;SDS011;6686;51.292;4.166;2023-07-02T15:42:36;10.67;;;5.43;;
13238;SDS011;6686;51.292;4.166;2023-07-02T15:45:22;13.80;;;6.33;;
13238;SDS011;6686;51.292;4.166;2023-07-02T15:48:07;9.07;;;4.73;;
13238;SDS011;6686;51.292;4.166;2023-07-02T15:50:53;12.13;;;5.83;;
13238;SDS011;6686;51.292;4.166;2023-07-02T15:53:40;11.90;;;5.60;;
13238;SDS011;6686;51.292;4.166;2023-07-02T15:56:26;9.77;;;4.87;;
13238;SDS011;6686;51.292;4.166;2023-07-02T15:59:12;19.07;;;6.70;;
13238;SDS011;6686;51.292;4.166;2023-07-02T16:01:57;13.67;;;6.47;;
13238;SDS011;6686;51.292;4.166;2023-07-02T16:04:43;17.70;;;5.93;;
13238;SDS011;6686;51.292;4.166;2023-07-02T16:07:30;16.60;;;6.53;;
13238;SDS011;6686;51.292;4.166;2023-07-02T16:10:15;14.30;;;6.65;;
13238;SDS011;6686;51.292;4.166;2023-07-02T16:13:01;13.27;;;6.97;;
13238;SDS011;6686;51.292;4.166;2023-07-02T16:15:47;15.57;;;6.33;;
13238;SDS011;6686;51.292;4.166;2023-07-02T16:18:33;11.43;;;6.20;;
13238;SDS011;6686;51.292;4.166;2023-07-02T16:21:18;11.93;;;6.68;;
13238;SDS011;6686;51.292;4.166;2023-07-02T16:24:05;16.85;;;6.40;;
13238;SDS011;6686;51.292;4.166;2023-07-02T16:26:51;14.90;;;6.40;;
13238;SDS011;6686;51.292;4.166;2023-07-02T16:29:37;16.40;;;6.00;;
13238;SDS011;6686;51.292;4.166;2023-07-02T16:32:22;14.93;;;6.20;;
13238;SDS011;6686;51.292;4.166;2023-07-02T16:35:09;12.40;;;5.83;;
13238;SDS011;6686;51.292;4.166;2023-07-02T16:37:54;9.87;;;6.07;;